Date,TemperatureHighF,TemperatureAvgF,TemperatureLowF,DewpointHighF,DewpointAvgF,DewpointLowF,HumidityHigh,HumidityAvg,HumidityLow,PressureMaxIn,PressureMinIn,WindSpeedMaxMPH,WindSpeedAvgMPH,GustSpeedMaxMPH,PrecipitationSumIn
2013-2-1,41,29,16,26,20,10,84,71,52,28.47,28.16,22,7,22,0.00
2013-2-2,56,41,28,36,30,25,90,68,34,28.39,28.22,16,6,16,0.00
2013-2-3,56,42,30,32,28,22,76,60,39,28.39,27.94,17,5,17,0.00
2013-2-4,56,42,35,34,30,27,78,63,39,28.12,27.93,13,4,13,0.00
2013-2-5,62,45,31,32,28,24,78,56,28,28.17,28.01,13,4,13,0.00
2013-2-6,64,46,33,48,38,26,92,73,50,28.13,27.88,21,7,21,0.00
2013-2-7,57,47,35,47,33,25,95,62,31,28.32,27.96,19,6,19,0.00
2013-2-8,52,38,27,36,30,21,87,72,52,28.37,28.12,20,7,20,0.00
2013-2-9,54,42,34,42,36,30,93,80,64,28.13,27.59,29,14,29,0.02
2013-2-10,46,39,30,43,28,22,91,67,49,28.15,27.52,34,16,34,0.25
2013-2-11,50,33,23,24,20,16,81,60,31,28.32,28.15,11,3,12,0.00
2013-2-12,52,37,28,29,20,11,70,52,28,28.25,28.08,10,3,10,0.00
2013-2-13,58,40,25,25,21,15,75,50,24,28.10,27.97,22,7,22,0.00
2013-2-14,47,38,27,32,26,17,82,61,40,28.43,28.04,15,6,15,0.00
2013-2-15,42,29,17,22,15,8,82,58,32,28.50,28.38,16,5,16,0.00
2013-2-16,61,37,17,30,20,8,77,54,29,28.46,28.07,20,4,20,0.00
2013-2-17,73,49,28,33,25,18,74,46,13,28.08,27.60,22,6,22,0.00
2013-2-18,50,42,28,32,24,14,68,48,29,28.25,27.57,24,9,24,0.04
2013-2-19,48,32,21,20,16,10,76,53,32,28.41,28.24,15,5,15,0.00
2013-2-20,29,26,23,25,18,6,91,73,43,28.30,28.08,22,12,22,0.00
2013-2-21,23,20,15,21,17,11,91,88,83,28.11,27.89,20,10,20,0.00
2013-2-22,31,17,7,20,10,2,86,77,61,28.19,28.02,12,4,12,0.00
2013-2-23,48,24,6,34,17,1,87,77,57,28.14,27.92,10,4,10,0.00
2013-2-24,38,28,15,30,24,12,92,83,70,28.10,27.92,17,6,17,0.00
2013-2-25,35,32,30,30,29,27,93,87,76,28.10,27.98,20,9,20,0.02
2013-2-26,36,28,21,27,23,18,88,81,69,28.07,27.93,14,6,14,0.00
2013-2-27,40,31,23,31,25,19,88,77,65,28.29,28.07,16,7,19,0.00
2013-2-28,39,31,23,29,25,19,87,78,66,28.36,28.28,12,4,12,0.00